createdAt,value
2019-05-09T00:01:04.821Z,1.73
2019-05-09T00:03:33.453Z,1.53
2019-05-09T00:06:00.918Z,1.30
2019-05-09T00:08:28.157Z,2.20
2019-05-09T00:10:55.403Z,5.20
2019-05-09T00:13:23.769Z,1.33
2019-05-09T00:15:51.186Z,1.60
2019-05-09T00:18:18.450Z,1.90
2019-05-09T00:20:53.983Z,1.83
2019-05-09T00:23:23.853Z,1.93
2019-05-09T00:25:50.559Z,1.40
2019-05-09T00:28:17.823Z,1.30
2019-05-09T00:30:55.574Z,1.33
2019-05-09T00:33:24.482Z,3.90
2019-05-09T00:35:53.432Z,2.87
2019-05-09T00:38:23.986Z,2.00
2019-05-09T00:40:56.064Z,1.90
2019-05-09T00:43:20.390Z,3.93
2019-05-09T00:46:00.781Z,5.23
2019-05-09T00:48:29.827Z,2.50
2019-05-09T00:50:57.071Z,1.50
2019-05-09T00:53:24.591Z,2.67
2019-05-09T00:55:53.038Z,2.73
2019-05-09T00:58:20.378Z,2.00
2019-05-09T01:00:47.689Z,6.93
2019-05-09T01:03:14.978Z,4.47
2019-05-09T01:05:43.647Z,10.10
2019-05-09T01:08:11.086Z,3.20
2019-05-09T01:10:38.327Z,2.73
2019-05-09T01:13:05.605Z,3.13
2019-05-09T01:15:33.464Z,3.70
2019-05-09T01:18:00.874Z,2.53
2019-05-09T01:20:28.143Z,4.83
2019-05-09T01:22:55.381Z,5.00
2019-05-09T01:25:24.048Z,3.07
2019-05-09T01:27:53.683Z,5.00
2019-05-09T01:30:20.783Z,3.20
2019-05-09T01:32:49.659Z,3.30
2019-05-09T01:35:16.927Z,2.80
2019-05-09T01:37:44.171Z,3.50
2019-05-09T01:40:13.263Z,2.10
2019-05-09T01:42:40.631Z,3.53
2019-05-09T01:45:07.975Z,2.30
2019-05-09T01:47:35.483Z,5.80
2019-05-09T01:50:03.895Z,4.00
2019-05-09T01:52:33.687Z,5.37
2019-05-09T01:55:00.327Z,3.67
2019-05-09T01:57:27.570Z,7.27
2019-05-09T01:59:54.834Z,3.47
2019-05-09T02:02:23.523Z,3.60
2019-05-09T02:04:53.205Z,3.33
2019-05-09T02:07:20.313Z,5.60
2019-05-09T02:09:47.651Z,4.57
2019-05-09T02:12:14.893Z,6.63
2019-05-09T02:14:43.852Z,6.93
2019-05-09T02:17:23.231Z,3.20
2019-05-09T02:19:50.568Z,2.87
2019-05-09T02:22:36.132Z,4.17
2019-05-09T02:25:06.977Z,3.93
2019-05-09T02:27:34.289Z,3.00
2019-05-09T02:30:05.458Z,5.33
2019-05-09T02:32:30.521Z,5.23
2019-05-09T02:34:57.785Z,10.50
2019-05-09T02:37:25.299Z,4.20
2019-05-09T02:39:52.542Z,3.70
2019-05-09T02:42:19.954Z,7.67
2019-05-09T02:44:49.246Z,6.30
2019-05-09T02:47:28.981Z,4.53
2019-05-09T02:49:55.223Z,5.33
2019-05-09T02:52:22.560Z,8.57
2019-05-09T02:54:50.289Z,4.97
2019-05-09T02:57:18.517Z,5.17
2019-05-09T02:59:59.465Z,5.50
2019-05-09T03:02:31.449Z,6.03
2019-05-09T03:04:58.744Z,5.63
2019-05-09T03:07:43.663Z,7.40
2019-05-09T03:10:10.911Z,7.10
2019-05-09T03:12:39.948Z,6.10
2019-05-09T03:15:09.213Z,7.33
2019-05-09T03:17:38.588Z,4.60
2019-05-09T03:20:09.450Z,6.17
2019-05-09T03:22:39.271Z,7.77
2019-05-09T03:25:08.808Z,10.23
2019-05-09T03:27:39.319Z,5.70
2019-05-09T03:30:24.610Z,6.17
2019-05-09T03:32:51.939Z,7.30
2019-05-09T03:35:19.187Z,8.60
2019-05-09T03:37:48.133Z,8.50
2019-05-09T03:40:15.410Z,6.83
2019-05-09T03:42:43.833Z,9.80
2019-05-09T03:45:12.841Z,7.10
2019-05-09T03:47:41.738Z,8.50
2019-05-09T03:50:10.827Z,7.70
2019-05-09T03:52:38.089Z,8.00
2019-05-09T03:55:09.983Z,8.20
2019-05-09T03:57:41.586Z,8.10
2019-05-09T04:00:09.002Z,8.70
2019-05-09T04:02:38.253Z,7.85
2019-05-09T04:05:05.401Z,10.67
2019-05-09T04:07:32.669Z,12.03
2019-05-09T04:10:00.186Z,8.60
2019-05-09T04:12:28.304Z,8.07
2019-05-09T04:14:58.285Z,9.70
2019-05-09T04:17:28.050Z,7.83
2019-05-09T04:19:55.366Z,7.23
2019-05-09T04:22:22.634Z,7.73
2019-05-09T04:24:49.879Z,5.90
2019-05-09T04:27:18.786Z,6.13
2019-05-09T04:29:48.264Z,8.90
2019-05-09T04:32:15.021Z,6.87
2019-05-09T04:34:42.262Z,6.63
2019-05-09T04:37:12.156Z,17.33
2019-05-09T04:39:40.703Z,9.60
2019-05-09T04:42:08.527Z,7.83
2019-05-09T04:44:37.612Z,4.33
2019-05-09T04:47:04.910Z,5.60
2019-05-09T04:49:39.660Z,7.20
2019-05-09T04:52:01.895Z,3.80
2019-05-09T04:54:29.162Z,7.83
2019-05-09T04:56:57.457Z,5.53
2019-05-09T04:59:24.847Z,4.17
2019-05-09T05:01:53.731Z,5.90
2019-05-09T05:04:22.515Z,4.50
2019-05-09T05:06:49.759Z,7.20
2019-05-09T05:09:20.955Z,3.90
2019-05-09T05:11:47.109Z,5.50
2019-05-09T05:14:23.765Z,4.50
2019-05-09T05:16:53.366Z,4.03
2019-05-09T05:19:20.502Z,4.50
2019-05-09T05:21:48.109Z,2.90
2019-05-09T05:24:20.158Z,4.57
2019-05-09T05:26:48.488Z,4.77
2019-05-09T05:29:17.746Z,4.00
2019-05-09T05:31:45.074Z,4.60
2019-05-09T05:34:13.981Z,3.27
2019-05-09T05:36:41.226Z,2.73
2019-05-09T05:39:08.562Z,6.73
2019-05-09T05:41:37.822Z,3.20
2019-05-09T05:44:05.218Z,5.90
2019-05-09T05:46:50.818Z,4.27
2019-05-09T05:49:18.617Z,7.43
2019-05-09T05:51:49.010Z,4.23
2019-05-09T05:54:18.158Z,4.47
2019-05-09T05:56:47.350Z,3.63
2019-05-09T05:59:14.611Z,4.27
2019-05-09T06:01:41.854Z,5.50
2019-05-09T06:04:09.148Z,7.13
2019-05-09T06:06:37.464Z,9.40
2019-05-09T06:09:08.291Z,4.70
2019-05-09T06:11:38.338Z,8.67
2019-05-09T06:14:11.480Z,9.37
2019-05-09T06:16:34.287Z,8.77
2019-05-09T06:19:01.726Z,9.03
2019-05-09T06:21:28.966Z,8.87
2019-05-09T06:23:58.469Z,5.07
2019-05-09T06:26:25.364Z,4.60
2019-05-09T06:28:52.864Z,4.90
2019-05-09T06:31:20.130Z,7.17
2019-05-09T06:33:53.406Z,7.20
2019-05-09T06:36:18.694Z,5.07
2019-05-09T06:38:45.374Z,5.60
2019-05-09T06:41:12.721Z,4.27
2019-05-09T06:43:41.615Z,4.63
2019-05-09T06:46:18.224Z,4.57
2019-05-09T06:48:47.828Z,7.97
2019-05-09T06:51:17.863Z,6.33
2019-05-09T06:53:43.599Z,6.47
2019-05-09T06:56:11.027Z,7.50
2019-05-09T06:58:40.146Z,8.03
2019-05-09T07:01:18.364Z,4.47
2019-05-09T07:03:50.044Z,5.30
2019-05-09T07:06:25.019Z,4.20
2019-05-09T07:08:58.475Z,3.23
2019-05-09T07:11:27.502Z,5.87
2019-05-09T07:13:54.942Z,5.20
2019-05-09T07:16:22.270Z,3.00
2019-05-09T07:18:49.516Z,4.10
2019-05-09T07:21:18.934Z,3.90
2019-05-09T07:23:47.849Z,2.50
2019-05-09T07:26:31.230Z,3.10
2019-05-09T07:28:59.481Z,2.30
2019-05-09T07:31:37.905Z,2.60
2019-05-09T07:34:08.585Z,1.63
2019-05-09T07:36:38.399Z,2.53
2019-05-09T07:39:08.666Z,2.00
2019-05-09T07:41:35.363Z,2.03
2019-05-09T07:44:02.774Z,3.47
2019-05-09T07:46:31.141Z,5.07
2019-05-09T07:48:58.654Z,3.73
2019-05-09T07:51:27.466Z,2.23
2019-05-09T07:53:54.905Z,6.53
2019-05-09T07:56:22.439Z,1.93
2019-05-09T07:58:49.753Z,1.63
2019-05-09T08:01:19.071Z,1.70
2019-05-09T08:03:45.997Z,1.03
2019-05-09T08:06:13.334Z,2.70
2019-05-09T08:08:40.582Z,1.33
2019-05-09T08:11:08.921Z,0.93
2019-05-09T08:13:38.599Z,2.83
2019-05-09T08:16:07.941Z,3.00
2019-05-09T08:18:34.335Z,1.93
2019-05-09T08:21:01.642Z,3.77
2019-05-09T08:23:28.910Z,1.93
2019-05-09T08:25:57.874Z,2.00
2019-05-09T08:28:27.626Z,3.43
2019-05-09T08:30:54.266Z,2.33
2019-05-09T08:33:21.534Z,2.00
2019-05-09T08:35:52.491Z,1.67
2019-05-09T08:38:18.036Z,3.03
2019-05-09T08:40:45.487Z,1.93
2019-05-09T08:43:12.749Z,1.53
2019-05-09T08:45:39.992Z,3.70
2019-05-09T08:48:09.420Z,1.97
2019-05-09T08:50:38.948Z,2.37
2019-05-09T08:53:08.168Z,2.77
2019-05-09T08:55:35.461Z,2.00
2019-05-09T08:58:02.718Z,2.80
2019-05-09T09:00:29.962Z,4.10
2019-05-09T09:02:57.518Z,1.53
2019-05-09T09:05:24.943Z,2.77
2019-05-09T09:07:52.219Z,3.10
2019-05-09T09:10:19.535Z,2.80
2019-05-09T09:12:47.796Z,3.73
2019-05-09T09:15:15.222Z,3.20
2019-05-09T09:17:42.502Z,3.30
2019-05-09T09:20:10.014Z,4.30
2019-05-09T09:22:37.719Z,6.00
2019-05-09T09:25:07.465Z,4.23
2019-05-09T09:27:34.407Z,6.07
2019-05-09T09:30:16.435Z,6.83
2019-05-09T09:32:30.634Z,5.13
2019-05-09T09:34:58.711Z,4.50
2019-05-09T09:37:28.317Z,4.30
2019-05-09T09:39:58.026Z,5.10
2019-05-09T09:42:24.320Z,7.10
2019-05-09T09:44:51.830Z,4.33
2019-05-09T09:47:23.027Z,4.53
2019-05-09T09:49:49.127Z,3.80
2019-05-09T09:52:18.736Z,4.70
2019-05-09T09:54:47.964Z,5.50
2019-05-09T09:57:14.669Z,5.20
2019-05-09T09:59:43.647Z,5.00
2019-05-09T10:02:15.054Z,4.30
2019-05-09T10:04:42.316Z,3.90
2019-05-09T10:07:09.563Z,3.53
2019-05-09T10:09:37.158Z,3.50
2019-05-09T10:12:04.514Z,3.77
2019-05-09T10:14:35.935Z,3.10
2019-05-09T10:17:10.794Z,2.03
2019-05-09T10:19:42.902Z,1.83
2019-05-09T10:22:24.186Z,1.60
2019-05-09T10:24:47.878Z,3.10
2019-05-09T10:27:18.496Z,1.30
2019-05-09T10:29:47.957Z,2.40
2019-05-09T10:32:18.344Z,2.43
2019-05-09T10:34:48.549Z,2.10
2019-05-09T10:37:14.717Z,2.23
2019-05-09T10:39:41.987Z,2.20
2019-05-09T10:42:18.678Z,2.13
2019-05-09T10:44:48.874Z,1.90
2019-05-09T10:47:27.325Z,1.53
2019-05-09T10:49:54.647Z,3.70
2019-05-09T10:52:21.892Z,3.93
2019-05-09T10:54:49.153Z,1.40
2019-05-09T10:57:16.412Z,2.07
2019-05-09T10:59:43.672Z,1.40
2019-05-09T11:02:10.924Z,2.33
2019-05-09T11:04:42.083Z,2.00
2019-05-09T11:07:08.083Z,2.47
2019-05-09T11:09:35.499Z,1.93
2019-05-09T11:12:02.743Z,1.80
2019-05-09T11:14:36.992Z,1.97
2019-05-09T11:17:07.925Z,2.63
2019-05-09T11:19:28.815Z,3.23
2019-05-09T11:21:58.491Z,2.60
2019-05-09T11:24:40.542Z,3.67
2019-05-09T11:26:54.142Z,5.27
2019-05-09T11:29:21.382Z,3.93
2019-05-09T11:31:48.647Z,4.13
2019-05-09T11:34:15.889Z,2.33
2019-05-09T11:36:43.154Z,2.63
2019-05-09T11:39:11.035Z,2.70
2019-05-09T11:41:38.653Z,2.77
2019-05-09T11:44:08.567Z,3.40
2019-05-09T11:46:35.231Z,2.33
2019-05-09T11:49:02.546Z,2.77
2019-05-09T11:51:29.895Z,5.53
2019-05-09T11:53:58.129Z,7.57
2019-05-09T11:56:25.570Z,3.17
2019-05-09T11:58:53.090Z,5.83
2019-05-09T12:01:20.882Z,2.63
2019-05-09T12:03:51.943Z,3.43
2019-05-09T12:06:20.221Z,4.73
2019-05-09T12:08:48.286Z,3.37
2019-05-09T12:11:18.191Z,3.60
2019-05-09T12:13:48.218Z,3.83
2019-05-09T12:16:14.562Z,3.80
2019-05-09T12:18:41.829Z,3.60
2019-05-09T12:21:09.268Z,5.20
2019-05-09T12:23:37.766Z,4.00
2019-05-09T12:26:08.017Z,3.57
2019-05-09T12:28:34.520Z,3.37
2019-05-09T12:31:01.814Z,3.00
2019-05-09T12:33:33.122Z,3.53
2019-05-09T12:35:59.254Z,2.70
2019-05-09T12:38:27.760Z,4.97
2019-05-09T12:41:00.204Z,3.07
2019-05-09T12:43:24.378Z,4.07
2019-05-09T12:45:51.647Z,2.20
2019-05-09T12:48:19.578Z,1.57
2019-05-09T12:50:48.908Z,2.60
2019-05-09T12:53:18.741Z,1.87
2019-05-09T12:55:47.426Z,1.40
2019-05-09T12:58:28.641Z,1.37
2019-05-09T13:00:58.433Z,1.43
2019-05-09T13:03:27.662Z,1.87
2019-05-09T13:05:57.334Z,1.40
2019-05-09T13:08:24.086Z,2.50
2019-05-09T13:10:51.338Z,1.30
2019-05-09T13:13:19.733Z,1.83
2019-05-09T13:15:49.003Z,1.93
2019-05-09T13:18:24.556Z,2.40
2019-05-09T13:20:45.258Z,2.30
2019-05-09T13:23:12.594Z,1.03
2019-05-09T13:25:39.842Z,0.90
2019-05-09T13:28:08.227Z,1.20
2019-05-09T13:30:38.041Z,2.47
2019-05-09T13:33:08.160Z,1.87
2019-05-09T13:35:33.663Z,2.90
2019-05-09T13:38:00.947Z,1.27
2019-05-09T13:40:29.125Z,1.40
2019-05-09T13:42:58.542Z,6.37
2019-05-09T13:45:25.510Z,2.03
2019-05-09T13:47:53.049Z,5.57
2019-05-09T13:50:20.286Z,1.93
2019-05-09T13:52:47.997Z,1.53
2019-05-09T13:55:17.610Z,1.20
2019-05-09T13:57:44.450Z,1.47
2019-05-09T14:00:11.694Z,0.80
2019-05-09T14:02:38.971Z,4.03
2019-05-09T14:05:08.871Z,1.10
2019-05-09T14:07:37.537Z,3.23
2019-05-09T14:10:08.992Z,1.10
2019-05-09T14:12:37.961Z,1.20
2019-05-09T14:15:08.472Z,1.97
2019-05-09T14:17:48.204Z,2.43
2019-05-09T14:20:08.725Z,1.10
2019-05-09T14:22:35.124Z,1.03
2019-05-09T14:25:02.743Z,2.40
2019-05-09T14:27:30.066Z,1.13
2019-05-09T14:29:59.320Z,0.93
2019-05-09T14:32:26.829Z,0.70
2019-05-09T14:34:54.171Z,2.50
2019-05-09T14:37:21.420Z,0.80
2019-05-09T14:39:58.008Z,1.43
2019-05-09T14:42:18.803Z,1.10
2019-05-09T14:44:47.370Z,0.70
2019-05-09T14:47:14.669Z,1.03
2019-05-09T14:49:44.657Z,1.43
2019-05-09T14:52:10.893Z,1.90
2019-05-09T14:54:39.204Z,0.87
2019-05-09T14:57:09.453Z,0.80
2019-05-09T14:59:35.554Z,1.53
2019-05-09T15:02:03.084Z,1.90
2019-05-09T15:04:30.363Z,1.23
2019-05-09T15:06:58.002Z,4.80
2019-05-09T15:09:25.295Z,1.13
2019-05-09T15:11:52.572Z,0.70
2019-05-09T15:14:19.810Z,0.70
2019-05-09T15:16:48.486Z,1.00
2019-05-09T15:19:18.049Z,1.13
2019-05-09T15:21:45.355Z,1.00
2019-05-09T15:24:12.597Z,0.70
2019-05-09T15:26:39.859Z,2.13
2019-05-09T15:29:08.098Z,0.70
2019-05-09T15:31:35.659Z,0.60
2019-05-09T15:34:02.902Z,0.70
2019-05-09T15:36:30.255Z,1.93
2019-05-09T15:38:59.155Z,0.80
2019-05-09T15:41:27.760Z,0.87
2019-05-09T15:43:57.757Z,0.90
2019-05-09T15:46:34.407Z,0.90
2019-05-09T15:49:01.649Z,1.00
2019-05-09T15:51:32.015Z,0.90
2019-05-09T15:53:57.930Z,1.37
2019-05-09T15:56:25.479Z,2.70
2019-05-09T15:58:52.723Z,0.90
2019-05-09T16:01:19.995Z,1.10
2019-05-09T16:03:48.596Z,0.70
2019-05-09T16:06:19.371Z,0.60
2019-05-09T16:08:45.042Z,0.97
2019-05-09T16:11:12.311Z,1.03
2019-05-09T16:13:39.549Z,1.07
2019-05-09T16:16:08.932Z,1.30
2019-05-09T16:18:35.867Z,1.03
2019-05-09T16:21:03.113Z,1.17
2019-05-09T16:23:30.375Z,0.70
2019-05-09T16:25:58.595Z,0.90
2019-05-09T16:28:26.058Z,0.70
2019-05-09T16:30:53.562Z,1.30
2019-05-09T16:33:20.839Z,0.93
2019-05-09T16:35:48.808Z,1.30
2019-05-09T16:38:18.509Z,0.80
2019-05-09T16:40:47.864Z,1.10
2019-05-09T16:43:14.835Z,2.13
2019-05-09T16:45:42.069Z,1.20
2019-05-09T16:48:11.449Z,1.20
2019-05-09T16:50:50.141Z,1.10
2019-05-09T16:53:09.177Z,1.20
2019-05-09T16:55:38.219Z,3.40
2019-05-09T16:58:05.510Z,1.93
2019-05-09T17:00:34.295Z,1.70
2019-05-09T17:03:01.820Z,1.40
2019-05-09T17:05:29.130Z,1.27
2019-05-09T17:07:58.024Z,1.37
2019-05-09T17:10:25.535Z,1.40
2019-05-09T17:12:52.820Z,6.10
2019-05-09T17:15:20.405Z,1.63
2019-05-09T17:17:47.774Z,1.20
2019-05-09T17:20:19.206Z,2.80
2019-05-09T17:23:11.662Z,1.20
2019-05-09T17:25:32.578Z,1.70
2019-05-09T17:27:59.842Z,1.27
2019-05-09T17:30:28.608Z,1.23
2019-05-09T17:32:58.292Z,1.27
2019-05-09T17:35:27.749Z,1.33
2019-05-09T17:37:54.399Z,2.00
2019-05-09T17:40:21.712Z,1.20
2019-05-09T17:42:48.974Z,0.97
2019-05-09T17:45:16.493Z,0.90
2019-05-09T17:47:43.750Z,1.17
2019-05-09T17:50:11.062Z,0.90
2019-05-09T17:52:38.406Z,0.80
2019-05-09T17:55:07.398Z,1.90
2019-05-09T17:57:34.761Z,1.10
2019-05-09T18:00:02.008Z,4.10
2019-05-09T18:02:29.270Z,1.00
2019-05-09T18:04:58.236Z,1.90
2019-05-09T18:07:27.901Z,0.70
2019-05-09T18:09:54.618Z,0.80
2019-05-09T18:12:22.174Z,1.00
2019-05-09T18:14:49.486Z,2.20
2019-05-09T18:17:17.942Z,1.83
2019-05-09T18:19:45.754Z,1.17
2019-05-09T18:22:13.281Z,3.33
2019-05-09T18:24:40.952Z,1.43
2019-05-09T18:27:08.373Z,0.73
2019-05-09T18:29:37.969Z,0.80
2019-05-09T18:32:07.759Z,0.80
2019-05-09T18:34:37.980Z,0.83
2019-05-09T18:37:05.053Z,0.97
2019-05-09T18:39:32.587Z,2.20
2019-05-09T18:42:00.303Z,1.40
2019-05-09T18:44:27.738Z,1.57
2019-05-09T18:46:57.511Z,1.30
2019-05-09T18:49:24.608Z,2.40
2019-05-09T18:52:03.385Z,1.13
2019-05-09T18:54:21.030Z,3.93
2019-05-09T18:56:48.267Z,1.43
2019-05-09T18:59:15.529Z,6.27
2019-05-09T19:01:42.811Z,1.20
2019-05-09T19:04:10.145Z,1.43
2019-05-09T19:06:39.809Z,0.73
2019-05-09T19:09:06.656Z,1.97
2019-05-09T19:11:33.918Z,1.03
2019-05-09T19:14:01.849Z,1.43
2019-05-09T19:16:30.813Z,2.63
2019-05-09T19:19:02.435Z,2.80
2019-05-09T19:21:31.314Z,1.70
2019-05-09T19:23:58.865Z,4.27
2019-05-09T19:26:38.037Z,1.10
2019-05-09T19:29:05.774Z,2.10
2019-05-09T19:31:33.293Z,1.00
2019-05-09T19:34:00.561Z,1.00
2019-05-09T19:36:27.814Z,2.03
2019-05-09T19:38:55.155Z,1.53
2019-05-09T19:41:22.402Z,1.53
2019-05-09T19:43:50.068Z,1.63
2019-05-09T19:46:17.314Z,1.57
2019-05-09T19:48:44.626Z,1.77
2019-05-09T19:51:11.893Z,0.80
2019-05-09T19:53:39.159Z,3.33
2019-05-09T19:56:06.430Z,2.90
2019-05-09T19:58:33.671Z,1.40
2019-05-09T20:01:01.216Z,1.20
2019-05-09T20:03:28.722Z,3.07
2019-05-09T20:05:56.250Z,2.60
2019-05-09T20:08:23.561Z,2.13
2019-05-09T20:11:07.782Z,2.03
2019-05-09T20:13:36.661Z,1.67
2019-05-09T20:16:04.186Z,2.10
2019-05-09T20:18:31.503Z,1.80
2019-05-09T20:20:58.753Z,1.07
2019-05-09T20:23:26.017Z,3.43
2019-05-09T20:25:53.336Z,4.10
2019-05-09T20:28:20.596Z,1.37
2019-05-09T20:30:47.930Z,1.10
2019-05-09T20:33:15.201Z,1.67
2019-05-09T20:35:42.454Z,1.83
2019-05-09T20:38:09.890Z,3.07
2019-05-09T20:40:37.998Z,3.23
2019-05-09T20:43:05.426Z,2.53
2019-05-09T20:45:32.950Z,4.73
2019-05-09T20:48:00.638Z,0.80
2019-05-09T20:50:28.163Z,0.70
2019-05-09T20:53:08.529Z,1.37
2019-05-09T20:55:24.776Z,0.57
2019-05-09T20:57:52.290Z,2.30
2019-05-09T21:00:19.878Z,1.17
2019-05-09T21:02:47.613Z,1.03
2019-05-09T21:05:15.293Z,3.80
2019-05-09T21:07:43.005Z,2.33
2019-05-09T21:10:10.501Z,12.93
2019-05-09T21:12:37.957Z,3.40
2019-05-09T21:15:06.454Z,0.60
2019-05-09T21:17:33.897Z,1.87
2019-05-09T21:20:01.608Z,2.63
2019-05-09T21:22:29.061Z,0.90
2019-05-09T21:24:56.758Z,0.60
2019-05-09T21:27:24.486Z,1.83
2019-05-09T21:29:51.912Z,3.83
2019-05-09T21:32:19.362Z,0.80
2019-05-09T21:34:46.602Z,2.10
2019-05-09T21:37:14.138Z,1.37
2019-05-09T21:39:41.469Z,1.27
2019-05-09T21:42:08.809Z,1.43
2019-05-09T21:44:36.051Z,0.80
2019-05-09T21:47:03.318Z,1.33
2019-05-09T21:49:30.565Z,1.30
2019-05-09T21:51:57.820Z,2.13
2019-05-09T21:54:25.090Z,3.20
2019-05-09T21:56:52.341Z,0.93
2019-05-09T21:59:19.608Z,2.53
2019-05-09T22:01:47.007Z,1.10
2019-05-09T22:04:14.277Z,0.80
2019-05-09T22:06:41.608Z,1.60
2019-05-09T22:09:09.997Z,0.93
2019-05-09T22:11:37.790Z,1.67
2019-05-09T22:14:05.132Z,1.77
2019-05-09T22:16:32.373Z,1.60
2019-05-09T22:18:59.643Z,1.47
2019-05-09T22:21:26.887Z,2.43
2019-05-09T22:23:56.817Z,2.17
2019-05-09T22:26:23.116Z,3.07
2019-05-09T22:28:50.447Z,1.50
2019-05-09T22:31:17.695Z,3.90
2019-05-09T22:33:45.211Z,1.20
2019-05-09T22:36:12.454Z,7.27
2019-05-09T22:38:43.362Z,1.63
2019-05-09T22:41:08.708Z,3.43
2019-05-09T22:43:36.275Z,4.13
2019-05-09T22:46:03.523Z,5.40
2019-05-09T22:48:30.886Z,3.80
2019-05-09T22:50:58.139Z,2.37
2019-05-09T22:53:25.396Z,4.50
2019-05-09T22:55:52.706Z,2.50
2019-05-09T22:58:19.955Z,2.80
2019-05-09T23:00:47.282Z,5.17
2019-05-09T23:03:14.526Z,2.17
2019-05-09T23:05:41.863Z,2.13
2019-05-09T23:08:09.110Z,4.10
2019-05-09T23:10:36.372Z,2.17
2019-05-09T23:13:03.622Z,2.80
2019-05-09T23:15:30.891Z,3.97
2019-05-09T23:17:58.203Z,3.33
2019-05-09T23:20:42.192Z,2.30
2019-05-09T23:23:29.183Z,3.37
2019-05-09T23:25:56.510Z,2.17
2019-05-09T23:28:24.240Z,2.60
2019-05-09T23:30:53.407Z,5.47
2019-05-09T23:33:21.114Z,3.60
2019-05-09T23:35:48.663Z,5.63
2019-05-09T23:38:15.910Z,2.80
2019-05-09T23:40:43.170Z,2.60
2019-05-09T23:43:10.410Z,1.73
2019-05-09T23:45:37.942Z,1.73
2019-05-09T23:48:05.442Z,4.40
2019-05-09T23:50:32.717Z,1.70
2019-05-09T23:52:59.958Z,3.50
2019-05-09T23:55:44.919Z,5.93
2019-05-09T23:58:29.726Z,7.47
